Time;durP1;ratioP1;P1;durP2;ratioP2;P2;SDS_P1;SDS_P2;PMS_P1;PMS_P2;Temp;Humidity;BMP_temperature;BMP_pressure;BME280_temperature;BME280_humidity;BME280_pressure;Samples;Min_cycle;Max_cycle;Signal;HPM_P1;HPM_P2
2023/08/03 00:00:43;;;;;;;10.57;9.85;;;;;;;;;;4723054;30;20535;-94
2023/08/03 00:03:12;;;;;;;9.75;9.02;;;;;;;;;;4723277;30;20072;-93
2023/08/03 00:06:04;;;;;;;8.57;7.80;;;;;;;;;;4731374;30;20028;-93
2023/08/03 00:08:31;;;;;;;9.85;9.02;;;;;;;;;;4757599;30;20051;-93
2023/08/03 00:11:06;;;;;;;15.55;10.00;;;;;;;;;;4747454;30;20131;-93
2023/08/03 00:13:47;;;;;;;8.43;7.82;;;;;;;;;;4740943;30;20036;-94
2023/08/03 00:16:16;;;;;;;9.77;9.07;;;;;;;;;;4739494;30;20092;-93
2023/08/03 00:18:54;;;;;;;10.18;9.35;;;;;;;;;;4739970;30;20044;-94
2023/08/03 00:21:25;;;;;;;10.30;9.32;;;;;;;;;;4741197;30;20448;-95
2023/08/03 00:23:55;;;;;;;9.65;8.82;;;;;;;;;;4790116;24;20065;-93
2023/08/03 00:26:30;;;;;;;10.02;9.18;;;;;;;;;;4737559;30;20032;-94
2023/08/03 00:28:56;;;;;;;10.45;9.40;;;;;;;;;;4737809;30;20037;-93
2023/08/03 00:31:25;;;;;;;10.80;9.88;;;;;;;;;;4737269;30;20039;-94
2023/08/03 00:36:58;;;;;;;11.38;10.30;;;;;;;;;;4739667;30;20055;-93
2023/08/03 00:39:30;;;;;;;9.75;8.95;;;;;;;;;;4737811;30;20041;-94
2023/08/03 00:42:08;;;;;;;9.15;8.35;;;;;;;;;;4739734;30;20035;-94
2023/08/03 00:47:29;;;;;;;11.07;10.02;;;;;;;;;;4740610;30;20124;-94
2023/08/03 00:50:09;;;;;;;7.82;7.10;;;;;;;;;;4737681;30;20029;-94
2023/08/03 00:52:39;;;;;;;8.00;7.30;;;;;;;;;;4739346;30;20036;-94
2023/08/03 00:55:08;;;;;;;10.10;7.75;;;;;;;;;;4737744;30;20040;-93
2023/08/03 00:57:34;;;;;;;9.95;8.40;;;;;;;;;;4736880;30;20102;-93
2023/08/03 01:00:00;;;;;;;10.13;9.25;;;;;;;;;;4736556;30;20109;-93
2023/08/03 01:02:32;;;;;;;11.13;10.25;;;;;;;;;;4737835;30;20467;-94
2023/08/03 01:04:58;;;;;;;9.05;8.27;;;;;;;;;;4737108;30;20025;-93
2023/08/03 01:07:30;;;;;;;9.52;8.73;;;;;;;;;;4736900;30;20068;-95
2023/08/03 01:10:03;;;;;;;9.23;8.30;;;;;;;;;;4736919;30;20057;-94
2023/08/03 01:12:38;;;;;;;7.90;7.22;;;;;;;;;;4737393;30;20045;-93
2023/08/03 01:15:10;;;;;;;8.85;7.95;;;;;;;;;;4739948;30;20033;-95
2023/08/03 01:17:42;;;;;;;7.75;7.15;;;;;;;;;;4736622;30;20075;-94
2023/08/03 01:20:27;;;;;;;10.52;9.55;;;;;;;;;;4738536;30;20036;-93
2023/08/03 01:29:15;;;;;;;9.32;8.38;;;;;;;;;;4737528;30;20063;-93
2023/08/03 01:31:47;;;;;;;10.88;9.98;;;;;;;;;;4736173;30;20044;-95
2023/08/03 01:34:29;;;;;;;11.73;10.68;;;;;;;;;;4736323;30;20128;-94
2023/08/03 01:36:58;;;;;;;11.57;10.68;;;;;;;;;;4735625;30;20068;-94
2023/08/03 01:39:27;;;;;;;10.93;10.00;;;;;;;;;;4735958;30;20060;-94
2023/08/03 01:41:54;;;;;;;11.90;10.82;;;;;;;;;;4735990;30;20049;-95
2023/08/03 01:44:28;;;;;;;12.88;11.82;;;;;;;;;;4736176;30;20075;-94
2023/08/03 01:53:06;;;;;;;12.10;11.13;;;;;;;;;;4737219;30;20049;-94
2023/08/03 01:55:39;;;;;;;13.43;12.48;;;;;;;;;;4736173;30;20506;-94
2023/08/03 01:58:36;;;;;;;14.35;13.23;;;;;;;;;;4735679;30;20044;-94
2023/08/03 02:01:02;;;;;;;14.88;13.50;;;;;;;;;;4736057;30;20403;-94
2023/08/03 02:03:29;;;;;;;15.77;14.48;;;;;;;;;;4743515;30;20028;-93
2023/08/03 02:06:01;;;;;;;16.40;15.05;;;;;;;;;;4752865;30;20076;-92
2023/08/03 02:08:39;;;;;;;12.33;10.63;;;;;;;;;;4739919;30;20048;-93
2023/08/03 02:11:11;;;;;;;15.20;14.00;;;;;;;;;;4734848;30;20057;-94
2023/08/03 02:13:46;;;;;;;15.57;14.38;;;;;;;;;;4741014;30;20024;-93
2023/08/03 02:16:21;;;;;;;17.88;16.50;;;;;;;;;;4757930;30;20320;-93
2023/08/03 02:18:50;;;;;;;11.60;10.70;;;;;;;;;;4756734;30;20130;-94
2023/08/03 02:24:48;;;;;;;12.15;11.30;;;;;;;;;;4717094;30;20068;-94
2023/08/03 02:27:14;;;;;;;13.60;12.60;;;;;;;;;;4734772;30;20605;-94
2023/08/03 02:29:46;;;;;;;12.15;10.40;;;;;;;;;;4734210;30;20029;-94
2023/08/03 02:32:25;;;;;;;13.27;12.38;;;;;;;;;;4734398;30;20045;-94
2023/08/03 02:34:51;;;;;;;13.93;12.85;;;;;;;;;;4734389;30;20526;-94
2023/08/03 02:37:17;;;;;;;11.75;10.80;;;;;;;;;;4734344;30;20053;-93
2023/08/03 02:39:43;;;;;;;15.52;14.15;;;;;;;;;;4735251;30;20025;-93
2023/08/03 02:44:56;;;;;;;13.10;12.20;;;;;;;;;;4736198;30;20044;-95
2023/08/03 02:47:25;;;;;;;12.88;11.98;;;;;;;;;;4723393;30;20108;-94
2023/08/03 02:49:57;;;;;;;14.43;13.40;;;;;;;;;;4718122;30;20041;-94
2023/08/03 02:52:26;;;;;;;13.93;12.83;;;;;;;;;;4721752;30;20410;-94
2023/08/03 02:54:52;;;;;;;17.83;16.48;;;;;;;;;;4736455;30;20036;-93
2023/08/03 02:57:24;;;;;;;18.42;17.10;;;;;;;;;;4733672;30;20037;-94
2023/08/03 02:59:50;;;;;;;17.77;16.42;;;;;;;;;;4726792;30;20041;-93
2023/08/03 03:02:17;;;;;;;17.75;16.50;;;;;;;;;;4736572;30;20029;-93
2023/08/03 03:04:43;;;;;;;11.80;11.07;;;;;;;;;;4735994;30;20060;-93
2023/08/03 03:07:15;;;;;;;16.00;14.95;;;;;;;;;;4736474;30;20043;-92
2023/08/03 03:09:48;;;;;;;16.70;15.52;;;;;;;;;;4724069;30;20040;-93
2023/08/03 03:12:20;;;;;;;18.88;17.38;;;;;;;;;;4724447;30;20057;-94
2023/08/03 03:14:46;;;;;;;14.57;13.55;;;;;;;;;;4717201;30;20094;-94
2023/08/03 03:23:19;;;;;;;9.20;8.32;;;;;;;;;;4718284;30;20111;-93
2023/08/03 03:25:47;;;;;;;16.30;15.13;;;;;;;;;;4720193;30;20052;-94
2023/08/03 03:28:28;;;;;;;18.60;17.30;;;;;;;;;;4719669;30;20044;-93
2023/08/03 03:30:54;;;;;;;18.92;17.60;;;;;;;;;;4721066;30;20044;-94
2023/08/03 03:33:32;;;;;;;13.57;12.48;;;;;;;;;;4720917;30;20033;-94
2023/08/03 03:36:04;;;;;;;17.38;16.08;;;;;;;;;;4720415;30;20075;-93
2023/08/03 03:38:33;;;;;;;19.55;18.30;;;;;;;;;;4720366;30;20040;-93
2023/08/03 03:41:02;;;;;;;17.58;16.38;;;;;;;;;;4729905;30;20093;-93
2023/08/03 03:43:29;;;;;;;20.98;19.52;;;;;;;;;;4737465;30;20037;-95
2023/08/03 03:46:02;;;;;;;17.15;15.85;;;;;;;;;;4737442;30;20438;-94
2023/08/03 03:48:34;;;;;;;15.38;14.27;;;;;;;;;;4737445;30;20398;-94
2023/08/03 03:51:02;;;;;;;18.38;17.02;;;;;;;;;;4736656;30;20055;-92
2023/08/03 03:53:35;;;;;;;18.70;17.35;;;;;;;;;;4735874;30;20079;-95
2023/08/03 03:56:07;;;;;;;16.20;15.07;;;;;;;;;;4741657;30;20032;-93
2023/08/03 03:58:34;;;;;;;;;;;;;;;;;;4758031;30;20040;-94
2023/08/03 04:01:18;;;;;;;11.55;10.63;;;;;;;;;;4758335;30;20388;-93
2023/08/03 04:03:48;;;;;;;14.70;13.63;;;;;;;;;;4771030;30;20164;-93
2023/08/03 04:06:14;;;;;;;12.32;11.07;;;;;;;;;;4741559;30;20032;-94
2023/08/03 04:08:46;;;;;;;17.98;16.77;;;;;;;;;;4741400;30;20099;-92
2023/08/03 04:11:13;;;;;;;17.83;16.73;;;;;;;;;;4741607;30;20060;-94
2023/08/03 04:16:59;;;;;;;15.48;14.27;;;;;;;;;;4720407;30;20181;-94
2023/08/03 04:19:28;;;;;;;20.35;19.05;;;;;;;;;;4719825;30;20033;-94
2023/08/03 04:21:57;;;;;;;22.15;20.58;;;;;;;;;;4720100;30;20156;-94
2023/08/03 04:24:26;;;;;;;24.98;23.38;;;;;;;;;;4719365;30;20088;-93
2023/08/03 04:26:52;;;;;;;23.73;22.30;;;;;;;;;;4719348;30;20122;-94
2023/08/03 04:29:30;;;;;;;19.45;18.20;;;;;;;;;;4719148;30;20037;-93
2023/08/03 04:31:58;;;;;;;18.48;17.27;;;;;;;;;;4719544;30;20029;-94
2023/08/03 04:34:25;;;;;;;25.73;24.17;;;;;;;;;;4719171;30;20045;-94
2023/08/03 04:36:51;;;;;;;24.30;22.35;;;;;;;;;;4718687;30;20060;-94
2023/08/03 04:39:17;;;;;;;22.58;21.10;;;;;;;;;;4718704;30;20033;-94
2023/08/03 04:41:46;;;;;;;19.23;17.98;;;;;;;;;;4718582;30;20048;-93
2023/08/03 04:44:16;;;;;;;23.52;22.15;;;;;;;;;;4718727;30;20041;-94
2023/08/03 04:46:44;;;;;;;26.15;24.63;;;;;;;;;;4718476;30;20037;-92
2023/08/03 04:49:13;;;;;;;29.55;27.83;;;;;;;;;;4718517;30;20049;-93
2023/08/03 04:51:42;;;;;;;48.83;45.83;;;;;;;;;;4718548;30;20065;-92
2023/08/03 04:54:14;;;;;;;36.60;34.45;;;;;;;;;;4718950;30;20041;-94
2023/08/03 04:56:43;;;;;;;42.72;40.30;;;;;;;;;;4719157;30;20049;-91
2023/08/03 04:59:11;;;;;;;84.75;80.00;;;;;;;;;;4718915;30;20498;-91
2023/08/03 05:01:37;;;;;;;48.90;45.92;;;;;;;;;;4724428;30;20028;-93
2023/08/03 05:04:08;;;;;;;129.35;122.15;;;;;;;;;;4736409;30;20098;-90
2023/08/03 05:06:36;;;;;;;67.82;63.83;;;;;;;;;;4736886;30;20491;-90
2023/08/03 05:09:06;;;;;;;129.52;122.55;;;;;;;;;;4737614;30;20040;-89
2023/08/03 05:11:32;;;;;;;136.95;129.63;;;;;;;;;;4736821;30;20099;-90
2023/08/03 05:13:58;;;;;;;112.10;106.00;;;;;;;;;;4743814;30;20091;-88
2023/08/03 05:16:28;;;;;;;133.68;126.45;;;;;;;;;;4750952;30;20052;-92
2023/08/03 05:21:58;;;;;;;138.13;130.73;;;;;;;;;;4721289;30;20075;-91
2023/08/03 05:24:25;;;;;;;127.20;120.32;;;;;;;;;;4709777;30;21495;-91
2023/08/03 05:26:51;;;;;;;143.98;136.18;;;;;;;;;;4701886;30;20065;-90
2023/08/03 05:29:18;;;;;;;120.47;113.68;;;;;;;;;;4700614;30;20041;-89
2023/08/03 05:31:48;;;;;;;146.15;138.18;;;;;;;;;;4700857;30;20080;-90
2023/08/03 05:34:14;;;;;;;93.05;87.78;;;;;;;;;;4701072;30;20607;-90
2023/08/03 05:36:40;;;;;;;138.73;131.07;;;;;;;;;;4700533;30;20481;-90
2023/08/03 05:39:08;;;;;;;127.70;120.90;;;;;;;;;;4704520;30;20069;-90
2023/08/03 05:41:34;;;;;;;90.55;85.25;;;;;;;;;;4717819;30;20060;-91
2023/08/03 05:44:02;;;;;;;147.13;139.07;;;;;;;;;;4717756;30;20041;-91
2023/08/03 05:46:31;;;;;;;149.60;141.63;;;;;;;;;;4717746;30;20096;-90
2023/08/03 05:48:57;;;;;;;140.45;132.70;;;;;;;;;;4720229;30;20037;-89
2023/08/03 05:51:25;;;;;;;138.25;130.60;;;;;;;;;;4735981;30;20064;-91
2023/08/03 05:53:51;;;;;;;152.60;144.32;;;;;;;;;;4735820;30;20032;-90
2023/08/03 05:56:19;;;;;;;154.15;145.52;;;;;;;;;;4746087;30;20086;-90
2023/08/03 05:58:46;;;;;;;93.78;88.10;;;;;;;;;;4741220;30;20041;-88
2023/08/03 06:04:12;;;;;;;92.18;86.80;;;;;;;;;;4719347;30;20051;-90
2023/08/03 06:06:38;;;;;;;154.18;145.60;;;;;;;;;;4719375;30;20506;-90
2023/08/03 06:09:49;;;;;;;148.93;140.85;;;;;;;;;;4718542;30;20039;-92
2023/08/03 06:12:33;;;;;;;155.23;146.50;;;;;;;;;;4651913;30;20033;-93
2023/08/03 06:15:13;;;;;;;130.50;123.22;;;;;;;;;;4666256;30;20034;-93
2023/08/03 06:17:48;;;;;;;126.60;119.80;;;;;;;;;;4671307;30;20055;-94
2023/08/03 06:20:30;;;;;;;158.48;149.75;;;;;;;;;;4728409;30;20040;-95
2023/08/03 06:23:02;;;;;;;141.98;134.25;;;;;;;;;;4735511;30;20040;-90
2023/08/03 06:25:28;;;;;;;166.75;157.73;;;;;;;;;;4735244;30;20053;-91
2023/08/03 06:27:55;;;;;;;140.02;132.48;;;;;;;;;;4735160;30;20051;-90
2023/08/03 06:30:21;;;;;;;132.30;125.15;;;;;;;;;;4736430;30;20020;-90
2023/08/03 06:33:10;;;;;;;135.43;127.97;;;;;;;;;;4739555;30;20021;-96
2023/08/03 06:38:48;;;;;;;125.43;118.20;;;;;;;;;;4728679;30;20045;-93
2023/08/03 06:41:27;;;;;;;131.85;124.35;;;;;;;;;;4730664;30;20036;-96
2023/08/03 06:44:02;;;;;;;86.05;81.35;;;;;;;;;;4717554;30;20085;-94
2023/08/03 06:46:28;;;;;;;76.85;72.53;;;;;;;;;;4717677;30;20047;-89
2023/08/03 06:48:58;;;;;;;41.13;38.58;;;;;;;;;;4738336;30;20035;-95
2023/08/03 06:51:27;;;;;;;34.55;32.47;;;;;;;;;;4736574;30;20032;-92
2023/08/03 06:53:53;;;;;;;22.55;21.20;;;;;;;;;;4735420;30;20276;-92
2023/08/03 06:56:25;;;;;;;8.43;7.72;;;;;;;;;;4734691;30;20036;-92
2023/08/03 06:58:51;;;;;;;9.80;8.40;;;;;;;;;;4734935;30;20392;-94
2023/08/03 07:01:41;;;;;;;6.75;6.03;;;;;;;;;;4735087;30;20032;-90
2023/08/03 07:04:07;;;;;;;4.35;4.03;;;;;;;;;;4734952;30;20041;-92
2023/08/03 07:06:33;;;;;;;4.18;3.78;;;;;;;;;;4734743;30;20029;-93
2023/08/03 07:08:59;;;;;;;5.15;3.83;;;;;;;;;;4734695;30;20087;-89
2023/08/03 07:11:28;;;;;;;3.97;3.45;;;;;;;;;;4734884;30;20051;-93
2023/08/03 07:13:54;;;;;;;3.88;3.10;;;;;;;;;;4736407;30;20033;-88
2023/08/03 07:16:22;;;;;;;4.18;3.50;;;;;;;;;;4737239;30;20047;-91
2023/08/03 07:18:52;;;;;;;4.07;3.28;;;;;;;;;;4736411;30;20131;-96
2023/08/03 07:21:18;;;;;;;6.72;3.17;;;;;;;;;;4734535;30;20060;-90
2023/08/03 07:23:44;;;;;;;7.80;7.25;;;;;;;;;;4734848;30;20487;-91
2023/08/03 07:26:15;;;;;;;10.57;9.77;;;;;;;;;;4735977;30;20053;-93
2023/08/03 07:28:49;;;;;;;10.77;10.00;;;;;;;;;;4739789;30;20033;-96
2023/08/03 07:31:15;;;;;;;6.45;4.15;;;;;;;;;;4740267;30;20060;-91
2023/08/03 07:33:41;;;;;;;4.05;3.65;;;;;;;;;;4738883;30;20028;-91
2023/08/03 07:36:23;;;;;;;5.13;4.63;;;;;;;;;;4738181;30;20044;-93
2023/08/03 07:41:53;;;;;;;41.20;37.60;;;;;;;;;;4739564;30;20040;-93
2023/08/03 07:44:40;;;;;;;16.88;15.75;;;;;;;;;;4738752;30;20037;-91
2023/08/03 07:47:06;;;;;;;32.97;31.10;;;;;;;;;;4741909;30;20029;-91
2023/08/03 07:49:35;;;;;;;49.05;46.15;;;;;;;;;;4738553;30;20090;-95
2023/08/03 07:52:02;;;;;;;77.68;73.43;;;;;;;;;;4740009;30;20048;-92
2023/08/03 07:54:34;;;;;;;94.20;89.03;;;;;;;;;;4758027;30;20025;-93
2023/08/03 07:57:00;;;;;;;113.60;107.30;;;;;;;;;;4751584;30;20087;-96
2023/08/03 08:02:25;;;;;;;202.67;191.57;;;;;;;;;;4743827;30;20094;-93
2023/08/03 08:04:54;;;;;;;248.07;234.10;;;;;;;;;;4738892;30;20041;-92
2023/08/03 08:07:33;;;;;;;237.20;223.77;;;;;;;;;;4722835;30;20045;-96
2023/08/03 08:10:00;;;;;;;269.95;254.35;;;;;;;;;;4748220;30;20029;-96
2023/08/03 08:12:29;;;;;;;305.90;287.77;;;;;;;;;;4752186;30;20029;-95
2023/08/03 08:14:58;;;;;;;285.92;269.77;;;;;;;;;;4757200;30;20029;-96
2023/08/03 08:17:47;;;;;;;;;;;;;;;;;;;;;
2023/08/03 08:20:13;;;;;;;289.92;273.15;;;;;;;;;;4738563;30;20049;-95
2023/08/03 08:22:49;;;;;;;291.30;274.75;;;;;;;;;;4738595;30;20059;-93
2023/08/03 08:25:17;;;;;;;310.60;292.67;;;;;;;;;;4739838;30;20052;-95
2023/08/03 08:27:47;;;;;;;289.80;273.27;;;;;;;;;;4737438;30;20040;-94
2023/08/03 08:30:23;;;;;;;275.95;260.02;;;;;;;;;;4739176;30;20037;-94
2023/08/03 08:32:55;;;;;;;279.30;263.20;;;;;;;;;;4737542;30;20063;-94
2023/08/03 08:35:46;;;;;;;287.60;270.77;;;;;;;;;;4742983;30;20094;-96
2023/08/03 08:38:21;;;;;;;277.40;261.52;;;;;;;;;;4713599;30;20048;-96
2023/08/03 08:41:22;;;;;;;261.70;246.68;;;;;;;;;;4743827;30;20052;-95
2023/08/03 08:43:48;;;;;;;282.60;266.67;;;;;;;;;;4729771;30;20045;-95
2023/08/03 09:01:55;;;;;;;280.88;264.75;;;;;;;;;;4763080;30;20059;-95
2023/08/03 09:04:36;;;;;;;281.75;266.00;;;;;;;;;;4746491;30;20040;-96
2023/08/03 09:15:54;;;;;;;290.58;274.00;;;;;;;;;;4755775;30;20086;-94
2023/08/03 09:19:02;;;;;;;266.73;251.45;;;;;;;;;;4740141;30;20491;-94
2023/08/03 09:21:31;;;;;;;280.92;264.80;;;;;;;;;;4719092;30;20033;-96
2023/08/03 09:42:31;;;;;;;293.77;276.70;;;;;;;;;;4650523;30;20086;-96
2023/08/03 09:50:53;;;;;;;269.02;253.98;;;;;;;;;;4659331;30;20086;-93
2023/08/03 09:53:40;;;;;;;272.90;257.73;;;;;;;;;;4703342;30;20075;-96
2023/08/03 09:56:09;;;;;;;258.08;243.43;;;;;;;;;;4738383;30;20028;-91
2023/08/03 09:58:58;;;;;;;253.88;239.93;;;;;;;;;;4738333;30;20068;-90
2023/08/03 10:01:34;;;;;;;260.80;246.18;;;;;;;;;;4738313;30;20036;-91
2023/08/03 10:04:09;;;;;;;244.30;230.68;;;;;;;;;;4738242;30;20035;-91
2023/08/03 10:06:44;;;;;;;282.30;266.08;;;;;;;;;;4738242;30;20038;-92
2023/08/03 10:09:13;;;;;;;282.98;266.90;;;;;;;;;;4738072;30;20043;-90
2023/08/03 10:11:58;;;;;;;248.90;234.75;;;;;;;;;;4738011;30;20032;-90
2023/08/03 10:14:35;;;;;;;256.38;242.10;;;;;;;;;;4738593;30;20410;-94
2023/08/03 10:17:04;;;;;;;256.17;242.02;;;;;;;;;;4738351;30;20046;-95
2023/08/03 10:19:50;;;;;;;273.50;258.08;;;;;;;;;;4737673;30;20075;-95
2023/08/03 10:22:16;;;;;;;253.02;239.10;;;;;;;;;;4731839;30;20039;-92
2023/08/03 10:25:04;;;;;;;269.40;254.00;;;;;;;;;;4739172;30;20043;-94
2023/08/03 10:27:30;;;;;;;270.15;254.70;;;;;;;;;;4738372;30;20063;-92
2023/08/03 10:30:04;;;;;;;256.17;242.20;;;;;;;;;;4738727;30;20127;-91
2023/08/03 10:32:36;;;;;;;253.13;238.95;;;;;;;;;;4738400;30;20044;-94
2023/08/03 10:35:27;;;;;;;284.40;268.48;;;;;;;;;;4734855;30;20056;-90
2023/08/03 10:37:56;;;;;;;264.70;249.95;;;;;;;;;;4732608;30;20223;-92
2023/08/03 10:40:25;;;;;;;271.45;255.95;;;;;;;;;;4735206;30;20033;-92
2023/08/03 10:43:10;;;;;;;262.77;247.93;;;;;;;;;;4736982;30;20036;-92
2023/08/03 10:45:37;;;;;;;261.15;246.63;;;;;;;;;;4734796;30;20103;-92
2023/08/03 10:51:07;;;;;;;270.50;255.45;;;;;;;;;;4736549;30;20410;-92
2023/08/03 10:53:34;;;;;;;284.45;268.52;;;;;;;;;;4735061;30;20037;-92
2023/08/03 10:56:17;;;;;;;;;;;;;;;;;;;;;
2023/08/03 10:58:51;;;;;;;273.30;257.88;;;;;;;;;;4727097;30;20071;-91
2023/08/03 11:01:26;;;;;;;258.25;243.60;;;;;;;;;;4718645;30;20040;-93
2023/08/03 11:03:59;;;;;;;257.27;242.77;;;;;;;;;;4741205;30;20044;-93
2023/08/03 11:06:39;;;;;;;285.42;269.33;;;;;;;;;;4753561;30;20033;-91
2023/08/03 11:14:51;;;;;;;276.10;260.35;;;;;;;;;;4701751;30;20060;-92
2023/08/03 11:17:49;;;;;;;257.30;243.05;;;;;;;;;;4717883;30;20118;-92
2023/08/03 11:20:43;;;;;;;266.95;252.13;;;;;;;;;;4717078;30;20041;-96
2023/08/03 11:23:16;;;;;;;292.73;276.00;;;;;;;;;;4717638;30;20095;-92
2023/08/03 11:25:58;;;;;;;294.97;278.13;;;;;;;;;;4717739;30;20033;-91
2023/08/03 11:28:30;;;;;;;295.58;278.80;;;;;;;;;;4717235;30;20029;-91
2023/08/03 11:31:18;;;;;;;294.87;278.13;;;;;;;;;;4729529;30;20037;-95
2023/08/03 11:36:56;;;;;;;283.95;268.02;;;;;;;;;;4752886;30;20555;-94
2023/08/03 11:42:44;;;;;;;281.80;266.08;;;;;;;;;;4751719;30;20059;-91
2023/08/03 11:48:33;;;;;;;266.27;251.30;;;;;;;;;;4753817;30;20049;-91
2023/08/03 11:51:18;;;;;;;263.30;248.38;;;;;;;;;;4739824;30;20045;-91
2023/08/03 11:53:47;;;;;;;249.93;235.88;;;;;;;;;;4734834;30;20037;-94
2023/08/03 12:09:05;;;;;;;288.42;271.70;;;;;;;;;;4697744;24;20447;-95
2023/08/03 12:11:31;;;;;;;270.95;255.32;;;;;;;;;;4730724;30;20127;-91
2023/08/03 12:14:25;;;;;;;263.75;248.40;;;;;;;;;;4739142;30;20060;-95
2023/08/03 12:16:51;;;;;;;;;;;;;;;;;;4723384;30;20052;-91
2023/08/03 12:19:20;;;;;;;204.85;193.48;;;;;;;;;;4745579;30;19928;-93
2023/08/03 12:21:50;;;;;;;270.75;255.32;;;;;;;;;;4740040;30;20071;-95
2023/08/03 12:24:39;;;;;;;276.95;261.08;;;;;;;;;;4739982;30;20040;-95
2023/08/03 12:27:08;;;;;;;265.95;250.93;;;;;;;;;;4739993;30;20040;-94
2023/08/03 12:50:20;;;;;;;272.67;257.33;;;;;;;;;;4770839;30;20056;-92
2023/08/03 12:52:49;;;;;;;281.25;265.27;;;;;;;;;;4744756;30;20044;-93
2023/08/03 12:55:15;;;;;;;262.83;248.25;;;;;;;;;;4740007;30;20028;-93
2023/08/03 12:57:49;;;;;;;260.48;245.45;;;;;;;;;;4733037;30;20044;-92
2023/08/03 13:00:30;;;;;;;276.05;260.15;;;;;;;;;;4722224;30;20040;-93
2023/08/03 13:02:59;;;;;;;259.30;244.45;;;;;;;;;;4721983;30;20025;-93
2023/08/03 13:05:41;;;;;;;249.52;235.45;;;;;;;;;;4722002;30;20033;-92
2023/08/03 13:08:16;;;;;;;261.63;246.85;;;;;;;;;;4722067;30;20048;-93
2023/08/03 13:10:52;;;;;;;179.25;168.95;;;;;;;;;;4721737;30;20041;-91
2023/08/03 13:13:21;;;;;;;248.18;234.35;;;;;;;;;;4722396;30;20045;-91
2023/08/03 13:15:51;;;;;;;179.40;169.50;;;;;;;;;;4726436;30;20041;-91
2023/08/03 13:18:17;;;;;;;246.00;232.18;;;;;;;;;;4739138;30;20048;-94
2023/08/03 13:23:47;;;;;;;170.95;161.48;;;;;;;;;;4741041;30;20059;-94
2023/08/03 13:26:19;;;;;;;197.13;186.00;;;;;;;;;;4738975;30;20072;-93
2023/08/03 13:28:50;;;;;;;266.60;250.75;;;;;;;;;;4739466;30;20079;-93
2023/08/03 13:31:23;;;;;;;183.95;173.95;;;;;;;;;;4714542;30;20049;-92
2023/08/03 13:33:55;;;;;;;209.20;196.88;;;;;;;;;;4735908;30;20409;-92
2023/08/03 13:36:21;;;;;;;170.93;161.13;;;;;;;;;;4738229;30;20052;-93
2023/08/03 13:38:48;;;;;;;183.18;173.13;;;;;;;;;;4737624;30;20040;-93
2023/08/03 13:41:21;;;;;;;162.18;153.27;;;;;;;;;;4744964;30;20081;-92
2023/08/03 13:43:53;;;;;;;176.65;166.85;;;;;;;;;;4738285;30;20047;-96
2023/08/03 13:49:12;;;;;;;162.15;153.48;;;;;;;;;;4747281;30;20064;-93
2023/08/03 13:51:42;;;;;;;154.07;145.75;;;;;;;;;;4738411;30;20486;-94
2023/08/03 13:54:14;;;;;;;154.77;146.38;;;;;;;;;;4728135;30;20082;-92
2023/08/03 13:56:52;;;;;;;148.47;140.40;;;;;;;;;;4721273;30;20087;-95
2023/08/03 13:59:28;;;;;;;169.57;160.43;;;;;;;;;;4732052;30;20093;-94
2023/08/03 14:02:18;;;;;;;147.25;139.27;;;;;;;;;;4749197;30;20032;-93
2023/08/03 14:04:52;;;;;;;135.82;128.38;;;;;;;;;;4739022;30;20040;-92
2023/08/03 14:07:21;;;;;;;136.02;128.50;;;;;;;;;;4738951;30;20036;-90
2023/08/03 14:13:13;;;;;;;143.98;136.10;;;;;;;;;;4754605;30;20089;-92
2023/08/03 14:15:49;;;;;;;130.40;123.22;;;;;;;;;;4738900;30;20036;-92
2023/08/03 14:18:20;;;;;;;147.32;138.93;;;;;;;;;;4738563;30;20040;-90
2023/08/03 14:20:49;;;;;;;163.88;154.80;;;;;;;;;;4739201;30;20032;-93
2023/08/03 14:23:15;;;;;;;152.25;143.88;;;;;;;;;;4738597;30;20098;-92
2023/08/03 14:26:04;;;;;;;142.65;134.70;;;;;;;;;;4754722;30;20043;-94
2023/08/03 14:28:33;;;;;;;147.27;138.63;;;;;;;;;;4773048;24;20448;-91
2023/08/03 14:31:03;;;;;;;158.80;150.15;;;;;;;;;;4752866;30;20048;-92
2023/08/03 14:33:32;;;;;;;158.80;149.98;;;;;;;;;;4752964;30;20055;-93
2023/08/03 14:36:02;;;;;;;138.35;130.93;;;;;;;;;;4752554;30;20040;-92
2023/08/03 14:38:31;;;;;;;148.40;140.25;;;;;;;;;;4753235;30;20043;-92
2023/08/03 14:40:57;;;;;;;133.50;125.82;;;;;;;;;;4753047;30;20039;-92
2023/08/03 14:43:29;;;;;;;154.02;145.27;;;;;;;;;;4753457;30;20047;-94
2023/08/03 14:45:55;;;;;;;116.80;110.43;;;;;;;;;;4765710;30;20021;-91
2023/08/03 14:48:54;;;;;;;132.93;125.80;;;;;;;;;;4771642;29;20039;-92
2023/08/03 14:51:40;;;;;;;133.07;125.80;;;;;;;;;;4750493;30;20104;-90
2023/08/03 14:54:09;;;;;;;147.88;139.68;;;;;;;;;;4753241;30;20044;-92
2023/08/03 14:56:35;;;;;;;146.80;138.45;;;;;;;;;;4754679;30;20032;-93
2023/08/03 14:59:09;;;;;;;161.77;153.05;;;;;;;;;;4752924;30;20391;-92
2023/08/03 15:01:41;;;;;;;152.25;143.70;;;;;;;;;;4752738;30;20032;-93
2023/08/03 15:04:11;;;;;;;164.27;155.27;;;;;;;;;;4752547;30;20097;-93
2023/08/03 15:06:57;;;;;;;178.20;168.27;;;;;;;;;;4752710;30;20382;-93
2023/08/03 15:09:26;;;;;;;162.50;153.38;;;;;;;;;;4752309;30;20478;-93
2023/08/03 15:11:55;;;;;;;157.57;148.88;;;;;;;;;;4752333;30;20056;-94
2023/08/03 15:14:21;;;;;;;168.48;159.15;;;;;;;;;;4752085;30;20032;-93
2023/08/03 15:16:48;;;;;;;158.05;148.82;;;;;;;;;;4752299;30;20387;-95
2023/08/03 15:19:17;;;;;;;130.50;123.45;;;;;;;;;;4753223;30;20460;-92
2023/08/03 15:21:43;;;;;;;131.68;124.35;;;;;;;;;;4754016;30;20087;-92
2023/08/03 15:24:09;;;;;;;135.65;128.15;;;;;;;;;;4752113;30;20042;-92
2023/08/03 15:26:56;;;;;;;145.10;137.02;;;;;;;;;;4752268;30;20078;-90
2023/08/03 15:32:23;;;;;;;131.57;124.10;;;;;;;;;;4751663;30;20119;-92
2023/08/03 15:35:10;;;;;;;117.25;110.82;;;;;;;;;;4755514;30;20035;-95
2023/08/03 15:37:36;;;;;;;122.88;115.97;;;;;;;;;;4775204;29;20039;-92
2023/08/03 15:40:03;;;;;;;136.00;128.38;;;;;;;;;;4770273;29;20043;-90
2023/08/03 15:42:32;;;;;;;122.40;115.72;;;;;;;;;;4765193;30;20044;-90
2023/08/03 15:44:58;;;;;;;117.07;110.60;;;;;;;;;;4752461;30;20485;-92
2023/08/03 15:47:28;;;;;;;121.72;114.78;;;;;;;;;;4753945;30;20123;-92
2023/08/03 15:53:31;;;;;;;96.32;90.90;;;;;;;;;;4756914;30;20055;-95
2023/08/03 15:56:07;;;;;;;102.93;97.13;;;;;;;;;;4756131;30;20078;-94
2023/08/03 15:58:48;;;;;;;111.05;104.85;;;;;;;;;;4882097;24;20103;-93
2023/08/03 16:01:16;;;;;;;122.10;115.20;;;;;;;;;;4738672;30;20093;-96
2023/08/03 16:04:03;;;;;;;107.55;101.55;;;;;;;;;;4741719;30;20033;-95
2023/08/03 16:06:38;;;;;;;101.32;95.55;;;;;;;;;;4738813;30;20044;-92
2023/08/03 16:09:04;;;;;;;111.72;105.50;;;;;;;;;;4739056;30;20128;-94
2023/08/03 16:11:30;;;;;;;112.68;106.32;;;;;;;;;;4737979;30;20033;-94
2023/08/03 16:13:56;;;;;;;104.18;98.28;;;;;;;;;;4737690;30;20032;-92
2023/08/03 16:16:33;;;;;;;103.95;97.88;;;;;;;;;;4738192;30;20087;-95
2023/08/03 16:19:00;;;;;;;118.78;112.28;;;;;;;;;;4723855;30;20056;-95
2023/08/03 16:21:35;;;;;;;122.68;115.78;;;;;;;;;;4738400;30;20032;-92
2023/08/03 16:24:18;;;;;;;115.38;108.97;;;;;;;;;;4738087;30;20047;-92
2023/08/03 16:26:44;;;;;;;;;;;;;;;;;;4738814;30;20040;-90
2023/08/03 16:29:16;;;;;;;102.90;97.20;;;;;;;;;;4737945;30;19911;-93
2023/08/03 16:31:52;;;;;;;118.63;111.82;;;;;;;;;;4738531;30;20128;-92
2023/08/03 16:34:28;;;;;;;119.57;113.10;;;;;;;;;;4736873;30;20083;-92
2023/08/03 16:37:07;;;;;;;120.85;114.35;;;;;;;;;;4687803;30;20062;-93
2023/08/03 16:39:35;;;;;;;124.30;117.53;;;;;;;;;;4701905;30;20077;-92
2023/08/03 16:42:02;;;;;;;126.93;119.90;;;;;;;;;;4716067;30;20032;-93
2023/08/03 16:44:28;;;;;;;123.13;116.35;;;;;;;;;;4713067;30;20048;-93
2023/08/03 16:46:54;;;;;;;115.65;109.25;;;;;;;;;;4714657;30;20041;-92
2023/08/03 16:49:20;;;;;;;111.50;105.22;;;;;;;;;;4704685;30;20048;-91
2023/08/03 16:51:49;;;;;;;117.90;111.15;;;;;;;;;;4704318;30;20025;-92
2023/08/03 16:54:36;;;;;;;121.70;114.75;;;;;;;;;;4704142;30;20049;-89
2023/08/03 16:57:04;;;;;;;113.22;106.70;;;;;;;;;;4718618;30;20049;-93
2023/08/03 16:59:30;;;;;;;120.70;114.00;;;;;;;;;;4713671;30;20053;-90
2023/08/03 17:01:56;;;;;;;116.95;110.30;;;;;;;;;;4719260;30;20071;-90
2023/08/03 17:04:22;;;;;;;104.45;98.68;;;;;;;;;;4721708;30;20040;-91
2023/08/03 17:06:49;;;;;;;117.38;110.93;;;;;;;;;;4739640;30;20071;-93
2023/08/03 17:09:29;;;;;;;121.05;114.30;;;;;;;;;;4745455;30;20084;-96
2023/08/03 17:11:56;;;;;;;121.40;114.57;;;;;;;;;;4739929;30;20041;-93
2023/08/03 17:14:31;;;;;;;121.45;114.68;;;;;;;;;;4765406;24;20076;-93
2023/08/03 17:17:13;;;;;;;;;;;;;;;;;;;;;
2023/08/03 17:19:49;;;;;;;107.97;101.97;;;;;;;;;;4750717;30;20123;-96
2023/08/03 17:30:27;;;;;;;92.75;87.30;;;;;;;;;;4861740;24;20147;-92